sensor_id;sensor_type;location;lat;lon;timestamp;P1;durP1;ratioP1;P2;durP2;ratioP2
44270;SDS011;29963;44.594;11.368;2023-04-09T00:01:04;13.93;;;12.50;;
44270;SDS011;29963;44.594;11.368;2023-04-09T00:03:30;14.75;;;12.77;;
44270;SDS011;29963;44.594;11.368;2023-04-09T00:05:56;16.48;;;11.93;;
44270;SDS011;29963;44.594;11.368;2023-04-09T00:08:22;13.57;;;12.18;;
44270;SDS011;29963;44.594;11.368;2023-04-09T00:10:48;13.35;;;12.05;;
44270;SDS011;29963;44.594;11.368;2023-04-09T00:13:14;13.20;;;11.85;;
44270;SDS011;29963;44.594;11.368;2023-04-09T00:15:40;11.43;;;10.23;;
44270;SDS011;29963;44.594;11.368;2023-04-09T00:18:06;13.35;;;11.20;;
44270;SDS011;29963;44.594;11.368;2023-04-09T00:20:31;11.05;;;9.93;;
44270;SDS011;29963;44.594;11.368;2023-04-09T00:22:57;11.13;;;10.13;;
44270;SDS011;29963;44.594;11.368;2023-04-09T00:25:23;13.10;;;10.93;;
44270;SDS011;29963;44.594;11.368;2023-04-09T00:27:48;12.05;;;10.95;;
44270;SDS011;29963;44.594;11.368;2023-04-09T00:30:14;12.48;;;11.18;;
44270;SDS011;29963;44.594;11.368;2023-04-09T00:32:40;13.90;;;11.90;;
44270;SDS011;29963;44.594;11.368;2023-04-09T00:35:06;12.38;;;10.52;;
44270;SDS011;29963;44.594;11.368;2023-04-09T00:37:32;12.48;;;11.18;;
44270;SDS011;29963;44.594;11.368;2023-04-09T00:39:57;12.90;;;11.60;;
44270;SDS011;29963;44.594;11.368;2023-04-09T00:42:23;14.98;;;11.02;;
44270;SDS011;29963;44.594;11.368;2023-04-09T00:44:49;12.68;;;11.38;;
44270;SDS011;29963;44.594;11.368;2023-04-09T00:47:14;15.40;;;11.45;;
44270;SDS011;29963;44.594;11.368;2023-04-09T00:49:40;14.73;;;11.52;;
44270;SDS011;29963;44.594;11.368;2023-04-09T00:52:06;13.18;;;10.75;;
44270;SDS011;29963;44.594;11.368;2023-04-09T00:54:31;11.95;;;10.80;;
44270;SDS011;29963;44.594;11.368;2023-04-09T00:56:57;12.20;;;10.98;;
44270;SDS011;29963;44.594;11.368;2023-04-09T00:59:24;11.20;;;9.98;;
44270;SDS011;29963;44.594;11.368;2023-04-09T01:01:50;12.20;;;10.65;;
44270;SDS011;29963;44.594;11.368;2023-04-09T01:04:16;11.57;;;9.95;;
44270;SDS011;29963;44.594;11.368;2023-04-09T01:06:48;11.48;;;10.07;;
44270;SDS011;29963;44.594;11.368;2023-04-09T01:09:26;11.90;;;9.50;;
44270;SDS011;29963;44.594;11.368;2023-04-09T01:14:24;12.23;;;10.55;;
44270;SDS011;29963;44.594;11.368;2023-04-09T01:16:59;9.90;;;8.90;;
44270;SDS011;29963;44.594;11.368;2023-04-09T01:22:28;10.68;;;9.65;;
44270;SDS011;29963;44.594;11.368;2023-04-09T01:30:52;12.60;;;10.00;;
44270;SDS011;29963;44.594;11.368;2023-04-09T01:33:23;11.15;;;10.05;;
44270;SDS011;29963;44.594;11.368;2023-04-09T01:35:50;10.48;;;9.40;;
44270;SDS011;29963;44.594;11.368;2023-04-09T01:38:17;15.23;;;10.20;;
44270;SDS011;29963;44.594;11.368;2023-04-09T01:40:45;11.35;;;10.13;;
44270;SDS011;29963;44.594;11.368;2023-04-09T01:43:12;10.75;;;9.75;;
44270;SDS011;29963;44.594;11.368;2023-04-09T01:45:39;14.93;;;9.85;;
44270;SDS011;29963;44.594;11.368;2023-04-09T01:48:05;9.68;;;8.68;;
44270;SDS011;29963;44.594;11.368;2023-04-09T01:50:31;11.15;;;8.55;;
44270;SDS011;29963;44.594;11.368;2023-04-09T01:52:58;8.98;;;8.05;;
44270;SDS011;29963;44.594;11.368;2023-04-09T01:55:25;9.40;;;8.60;;
44270;SDS011;29963;44.594;11.368;2023-04-09T01:57:51;9.20;;;7.80;;
44270;SDS011;29963;44.594;11.368;2023-04-09T02:00:16;10.05;;;8.95;;
44270;SDS011;29963;44.594;11.368;2023-04-09T02:02:45;9.10;;;7.88;;
44270;SDS011;29963;44.594;11.368;2023-04-09T02:05:19;9.93;;;8.95;;
44270;SDS011;29963;44.594;11.368;2023-04-09T02:07:51;8.45;;;7.68;;
44270;SDS011;29963;44.594;11.368;2023-04-09T02:10:20;9.27;;;8.18;;
44270;SDS011;29963;44.594;11.368;2023-04-09T02:12:48;10.30;;;9.27;;
44270;SDS011;29963;44.594;11.368;2023-04-09T02:15:15;9.68;;;8.63;;
44270;SDS011;29963;44.594;11.368;2023-04-09T02:17:43;10.20;;;8.77;;
44270;SDS011;29963;44.594;11.368;2023-04-09T02:20:08;8.18;;;7.43;;
44270;SDS011;29963;44.594;11.368;2023-04-09T02:22:35;10.85;;;9.85;;
44270;SDS011;29963;44.594;11.368;2023-04-09T02:25:00;8.77;;;7.88;;
44270;SDS011;29963;44.594;11.368;2023-04-09T02:27:26;11.10;;;8.70;;
44270;SDS011;29963;44.594;11.368;2023-04-09T02:29:52;9.32;;;8.50;;
44270;SDS011;29963;44.594;11.368;2023-04-09T02:32:17;14.57;;;10.38;;
44270;SDS011;29963;44.594;11.368;2023-04-09T02:34:43;10.85;;;7.82;;
44270;SDS011;29963;44.594;11.368;2023-04-09T02:37:09;10.93;;;8.85;;
44270;SDS011;29963;44.594;11.368;2023-04-09T02:39:35;9.05;;;8.05;;
44270;SDS011;29963;44.594;11.368;2023-04-09T02:42:01;10.77;;;9.48;;
44270;SDS011;29963;44.594;11.368;2023-04-09T02:44:26;9.43;;;8.38;;
44270;SDS011;29963;44.594;11.368;2023-04-09T02:46:52;11.68;;;9.82;;
44270;SDS011;29963;44.594;11.368;2023-04-09T02:49:17;10.30;;;8.75;;
44270;SDS011;29963;44.594;11.368;2023-04-09T02:51:43;9.98;;;8.93;;
44270;SDS011;29963;44.594;11.368;2023-04-09T02:54:08;9.82;;;7.70;;
44270;SDS011;29963;44.594;11.368;2023-04-09T02:56:34;10.43;;;9.13;;
44270;SDS011;29963;44.594;11.368;2023-04-09T02:59:00;8.90;;;7.65;;
44270;SDS011;29963;44.594;11.368;2023-04-09T03:01:25;9.07;;;8.27;;
44270;SDS011;29963;44.594;11.368;2023-04-09T03:03:51;8.63;;;7.70;;
44270;SDS011;29963;44.594;11.368;2023-04-09T03:06:16;11.25;;;8.48;;
44270;SDS011;29963;44.594;11.368;2023-04-09T03:08:42;10.02;;;8.52;;
44270;SDS011;29963;44.594;11.368;2023-04-09T03:11:08;9.35;;;8.45;;
44270;SDS011;29963;44.594;11.368;2023-04-09T03:13:33;10.88;;;9.30;;
44270;SDS011;29963;44.594;11.368;2023-04-09T03:15:59;8.93;;;8.02;;
44270;SDS011;29963;44.594;11.368;2023-04-09T03:18:24;10.38;;;7.68;;
44270;SDS011;29963;44.594;11.368;2023-04-09T03:20:50;12.52;;;10.07;;
44270;SDS011;29963;44.594;11.368;2023-04-09T03:23:15;9.20;;;7.63;;
44270;SDS011;29963;44.594;11.368;2023-04-09T03:25:41;12.48;;;9.85;;
44270;SDS011;29963;44.594;11.368;2023-04-09T03:28:06;10.55;;;7.82;;
44270;SDS011;29963;44.594;11.368;2023-04-09T03:30:32;10.38;;;9.00;;
44270;SDS011;29963;44.594;11.368;2023-04-09T03:32:58;10.10;;;8.88;;
44270;SDS011;29963;44.594;11.368;2023-04-09T03:35:23;12.38;;;9.18;;
44270;SDS011;29963;44.594;11.368;2023-04-09T03:37:49;9.73;;;7.85;;
44270;SDS011;29963;44.594;11.368;2023-04-09T03:40:15;9.77;;;8.85;;
44270;SDS011;29963;44.594;11.368;2023-04-09T03:42:41;8.93;;;7.93;;
44270;SDS011;29963;44.594;11.368;2023-04-09T03:45:07;10.15;;;9.02;;
44270;SDS011;29963;44.594;11.368;2023-04-09T03:47:33;11.55;;;8.27;;
44270;SDS011;29963;44.594;11.368;2023-04-09T03:49:59;10.07;;;8.82;;
44270;SDS011;29963;44.594;11.368;2023-04-09T03:52:25;10.23;;;8.48;;
44270;SDS011;29963;44.594;11.368;2023-04-09T03:54:50;10.57;;;8.38;;
44270;SDS011;29963;44.594;11.368;2023-04-09T03:57:16;11.05;;;9.93;;
44270;SDS011;29963;44.594;11.368;2023-04-09T03:59:41;11.32;;;7.95;;
44270;SDS011;29963;44.594;11.368;2023-04-09T04:02:07;8.20;;;7.43;;
44270;SDS011;29963;44.594;11.368;2023-04-09T04:04:33;9.65;;;8.65;;
44270;SDS011;29963;44.594;11.368;2023-04-09T04:06:58;9.32;;;8.43;;
44270;SDS011;29963;44.594;11.368;2023-04-09T04:09:24;9.65;;;8.65;;
44270;SDS011;29963;44.594;11.368;2023-04-09T04:11:49;10.27;;;8.00;;
44270;SDS011;29963;44.594;11.368;2023-04-09T04:14:15;8.30;;;7.50;;
44270;SDS011;29963;44.594;11.368;2023-04-09T04:16:41;12.35;;;8.48;;
44270;SDS011;29963;44.594;11.368;2023-04-09T04:19:06;10.38;;;8.70;;
44270;SDS011;29963;44.594;11.368;2023-04-09T04:21:32;8.25;;;7.40;;
44270;SDS011;29963;44.594;11.368;2023-04-09T04:23:57;11.52;;;8.95;;
44270;SDS011;29963;44.594;11.368;2023-04-09T04:26:23;8.55;;;7.72;;
44270;SDS011;29963;44.594;11.368;2023-04-09T04:28:49;9.02;;;8.02;;
44270;SDS011;29963;44.594;11.368;2023-04-09T04:31:14;8.45;;;7.57;;
44270;SDS011;29963;44.594;11.368;2023-04-09T04:33:41;12.02;;;10.57;;
44270;SDS011;29963;44.594;11.368;2023-04-09T04:36:07;13.65;;;10.40;;
44270;SDS011;29963;44.594;11.368;2023-04-09T04:38:34;11.55;;;9.52;;
44270;SDS011;29963;44.594;11.368;2023-04-09T04:41:00;13.48;;;9.77;;
44270;SDS011;29963;44.594;11.368;2023-04-09T04:43:26;9.15;;;7.35;;
44270;SDS011;29963;44.594;11.368;2023-04-09T04:45:52;8.93;;;8.02;;
44270;SDS011;29963;44.594;11.368;2023-04-09T04:48:19;8.07;;;7.28;;
44270;SDS011;29963;44.594;11.368;2023-04-09T04:50:44;8.65;;;7.85;;
44270;SDS011;29963;44.594;11.368;2023-04-09T04:53:10;9.57;;;7.97;;
44270;SDS011;29963;44.594;11.368;2023-04-09T04:55:36;7.95;;;7.18;;
44270;SDS011;29963;44.594;11.368;2023-04-09T04:58:03;8.38;;;7.55;;
44270;SDS011;29963;44.594;11.368;2023-04-09T05:00:29;9.10;;;8.20;;
44270;SDS011;29963;44.594;11.368;2023-04-09T05:02:55;10.32;;;8.57;;
44270;SDS011;29963;44.594;11.368;2023-04-09T05:05:21;10.15;;;9.00;;
44270;SDS011;29963;44.594;11.368;2023-04-09T05:07:47;8.70;;;7.45;;
44270;SDS011;29963;44.594;11.368;2023-04-09T05:10:12;12.63;;;8.43;;
44270;SDS011;29963;44.594;11.368;2023-04-09T05:12:38;9.73;;;8.88;;
44270;SDS011;29963;44.594;11.368;2023-04-09T05:15:03;8.60;;;7.85;;
44270;SDS011;29963;44.594;11.368;2023-04-09T05:17:29;10.57;;;8.98;;
44270;SDS011;29963;44.594;11.368;2023-04-09T05:19:55;9.30;;;7.95;;
44270;SDS011;29963;44.594;11.368;2023-04-09T05:22:21;9.93;;;8.93;;
44270;SDS011;29963;44.594;11.368;2023-04-09T05:24:48;10.55;;;8.68;;
44270;SDS011;29963;44.594;11.368;2023-04-09T05:27:13;13.35;;;9.82;;
44270;SDS011;29963;44.594;11.368;2023-04-09T05:29:39;10.68;;;7.88;;
44270;SDS011;29963;44.594;11.368;2023-04-09T05:32:05;10.38;;;9.05;;
44270;SDS011;29963;44.594;11.368;2023-04-09T05:34:33;9.02;;;8.13;;
44270;SDS011;29963;44.594;11.368;2023-04-09T05:36:59;9.80;;;8.82;;
44270;SDS011;29963;44.594;11.368;2023-04-09T05:39:25;8.93;;;8.13;;
44270;SDS011;29963;44.594;11.368;2023-04-09T05:41:50;7.70;;;7.00;;
44270;SDS011;29963;44.594;11.368;2023-04-09T05:44:16;10.13;;;7.50;;
44270;SDS011;29963;44.594;11.368;2023-04-09T05:46:42;9.30;;;8.43;;
44270;SDS011;29963;44.594;11.368;2023-04-09T05:49:07;8.93;;;8.02;;
44270;SDS011;29963;44.594;11.368;2023-04-09T05:51:33;10.00;;;9.00;;
44270;SDS011;29963;44.594;11.368;2023-04-09T05:53:59;8.88;;;7.97;;
44270;SDS011;29963;44.594;11.368;2023-04-09T05:56:25;7.95;;;7.15;;
44270;SDS011;29963;44.594;11.368;2023-04-09T05:58:52;9.40;;;7.78;;
44270;SDS011;29963;44.594;11.368;2023-04-09T06:01:18;8.55;;;7.72;;
44270;SDS011;29963;44.594;11.368;2023-04-09T06:03:43;8.57;;;7.75;;
44270;SDS011;29963;44.594;11.368;2023-04-09T06:06:09;8.52;;;7.65;;
44270;SDS011;29963;44.594;11.368;2023-04-09T06:08:34;7.65;;;6.95;;
44270;SDS011;29963;44.594;11.368;2023-04-09T06:11:00;8.57;;;7.78;;
44270;SDS011;29963;44.594;11.368;2023-04-09T06:13:26;8.23;;;7.43;;
44270;SDS011;29963;44.594;11.368;2023-04-09T06:15:51;7.85;;;7.05;;
44270;SDS011;29963;44.594;11.368;2023-04-09T06:18:17;10.68;;;8.93;;
44270;SDS011;29963;44.594;11.368;2023-04-09T06:20:42;8.15;;;7.20;;
44270;SDS011;29963;44.594;11.368;2023-04-09T06:23:08;8.05;;;7.35;;
44270;SDS011;29963;44.594;11.368;2023-04-09T06:25:34;9.23;;;8.32;;
44270;SDS011;29963;44.594;11.368;2023-04-09T06:28:00;8.63;;;7.80;;
44270;SDS011;29963;44.594;11.368;2023-04-09T06:30:27;11.55;;;8.05;;
44270;SDS011;29963;44.594;11.368;2023-04-09T06:32:53;9.13;;;7.75;;
44270;SDS011;29963;44.594;11.368;2023-04-09T06:35:18;8.20;;;7.40;;
44270;SDS011;29963;44.594;11.368;2023-04-09T06:37:44;10.25;;;8.30;;
44270;SDS011;29963;44.594;11.368;2023-04-09T06:40:10;10.15;;;8.77;;
44270;SDS011;29963;44.594;11.368;2023-04-09T06:42:36;8.60;;;7.72;;
44270;SDS011;29963;44.594;11.368;2023-04-09T06:45:02;9.05;;;7.97;;
44270;SDS011;29963;44.594;11.368;2023-04-09T06:47:32;9.60;;;8.80;;
44270;SDS011;29963;44.594;11.368;2023-04-09T06:49:59;9.48;;;8.55;;
44270;SDS011;29963;44.594;11.368;2023-04-09T06:52:24;9.45;;;8.52;;
44270;SDS011;29963;44.594;11.368;2023-04-09T06:54:50;11.23;;;9.13;;
44270;SDS011;29963;44.594;11.368;2023-04-09T06:57:16;11.27;;;9.02;;
44270;SDS011;29963;44.594;11.368;2023-04-09T06:59:42;9.73;;;8.93;;
44270;SDS011;29963;44.594;11.368;2023-04-09T07:02:07;10.80;;;9.32;;
44270;SDS011;29963;44.594;11.368;2023-04-09T07:04:33;10.13;;;8.95;;
44270;SDS011;29963;44.594;11.368;2023-04-09T07:06:59;10.68;;;9.77;;
44270;SDS011;29963;44.594;11.368;2023-04-09T07:09:25;9.98;;;8.93;;
44270;SDS011;29963;44.594;11.368;2023-04-09T07:11:50;11.00;;;9.55;;
44270;SDS011;29963;44.594;11.368;2023-04-09T07:14:16;13.48;;;9.77;;
44270;SDS011;29963;44.594;11.368;2023-04-09T07:16:41;11.15;;;9.93;;
44270;SDS011;29963;44.594;11.368;2023-04-09T07:19:10;10.35;;;9.35;;
44270;SDS011;29963;44.594;11.368;2023-04-09T07:21:36;11.73;;;10.50;;
44270;SDS011;29963;44.594;11.368;2023-04-09T07:24:01;11.50;;;10.40;;
44270;SDS011;29963;44.594;11.368;2023-04-09T07:26:27;10.88;;;9.77;;
44270;SDS011;29963;44.594;11.368;2023-04-09T07:28:53;11.10;;;9.13;;
44270;SDS011;29963;44.594;11.368;2023-04-09T07:31:20;12.35;;;11.13;;
44270;SDS011;29963;44.594;11.368;2023-04-09T07:33:45;10.40;;;9.40;;
44270;SDS011;29963;44.594;11.368;2023-04-09T07:36:11;12.38;;;11.15;;
44270;SDS011;29963;44.594;11.368;2023-04-09T07:38:36;11.68;;;10.55;;
44270;SDS011;29963;44.594;11.368;2023-04-09T07:41:02;9.77;;;8.75;;
44270;SDS011;29963;44.594;11.368;2023-04-09T07:43:28;9.45;;;8.43;;
44270;SDS011;29963;44.594;11.368;2023-04-09T07:45:53;9.13;;;7.88;;
44270;SDS011;29963;44.594;11.368;2023-04-09T07:48:19;9.20;;;8.20;;
44270;SDS011;29963;44.594;11.368;2023-04-09T07:50:45;8.45;;;7.53;;
44270;SDS011;29963;44.594;11.368;2023-04-09T07:53:10;8.48;;;7.68;;
44270;SDS011;29963;44.594;11.368;2023-04-09T07:55:36;9.02;;;8.23;;
44270;SDS011;29963;44.594;11.368;2023-04-09T07:58:02;9.43;;;8.52;;
44270;SDS011;29963;44.594;11.368;2023-04-09T08:00:31;9.77;;;7.82;;
44270;SDS011;29963;44.594;11.368;2023-04-09T08:02:56;8.68;;;7.78;;
44270;SDS011;29963;44.594;11.368;2023-04-09T08:05:22;8.57;;;7.72;;
44270;SDS011;29963;44.594;11.368;2023-04-09T08:07:51;9.00;;;8.07;;
44270;SDS011;29963;44.594;11.368;2023-04-09T08:10:17;10.38;;;7.57;;
44270;SDS011;29963;44.594;11.368;2023-04-09T08:12:43;7.85;;;7.00;;
44270;SDS011;29963;44.594;11.368;2023-04-09T08:15:08;10.52;;;8.55;;
44270;SDS011;29963;44.594;11.368;2023-04-09T08:17:34;9.85;;;8.90;;
44270;SDS011;29963;44.594;11.368;2023-04-09T08:20:03;9.23;;;8.20;;
44270;SDS011;29963;44.594;11.368;2023-04-09T08:22:29;10.32;;;8.30;;
44270;SDS011;29963;44.594;11.368;2023-04-09T08:24:55;8.85;;;8.05;;
44270;SDS011;29963;44.594;11.368;2023-04-09T08:27:22;9.05;;;7.75;;
44270;SDS011;29963;44.594;11.368;2023-04-09T08:29:47;11.55;;;8.27;;
44270;SDS011;29963;44.594;11.368;2023-04-09T08:32:13;7.47;;;6.78;;
44270;SDS011;29963;44.594;11.368;2023-04-09T08:34:39;8.65;;;7.78;;
44270;SDS011;29963;44.594;11.368;2023-04-09T08:37:05;8.68;;;7.88;;
44270;SDS011;29963;44.594;11.368;2023-04-09T08:39:31;10.88;;;9.35;;
44270;SDS011;29963;44.594;11.368;2023-04-09T08:41:58;8.48;;;7.65;;
44270;SDS011;29963;44.594;11.368;2023-04-09T08:44:25;9.55;;;8.48;;
44270;SDS011;29963;44.594;11.368;2023-04-09T08:46:52;8.55;;;7.75;;
44270;SDS011;29963;44.594;11.368;2023-04-09T08:49:18;12.23;;;8.75;;
44270;SDS011;29963;44.594;11.368;2023-04-09T08:51:45;9.10;;;8.20;;
44270;SDS011;29963;44.594;11.368;2023-04-09T08:54:13;9.23;;;8.32;;
44270;SDS011;29963;44.594;11.368;2023-04-09T08:56:41;8.73;;;7.20;;
44270;SDS011;29963;44.594;11.368;2023-04-09T08:59:07;10.48;;;6.85;;
44270;SDS011;29963;44.594;11.368;2023-04-09T09:01:33;9.88;;;6.35;;
44270;SDS011;29963;44.594;11.368;2023-04-09T09:04:06;5.55;;;5.05;;
44270;SDS011;29963;44.594;11.368;2023-04-09T09:06:37;5.53;;;4.78;;
44270;SDS011;29963;44.594;11.368;2023-04-09T09:11:42;5.88;;;5.40;;
44270;SDS011;29963;44.594;11.368;2023-04-09T09:14:10;5.65;;;5.15;;
44270;SDS011;29963;44.594;11.368;2023-04-09T09:16:38;8.50;;;4.80;;
44270;SDS011;29963;44.594;11.368;2023-04-09T09:19:09;6.50;;;4.72;;
44270;SDS011;29963;44.594;11.368;2023-04-09T09:21:58;9.00;;;5.03;;
44270;SDS011;29963;44.594;11.368;2023-04-09T09:24:29;5.18;;;4.68;;
44270;SDS011;29963;44.594;11.368;2023-04-09T09:26:56;4.97;;;4.57;;
44270;SDS011;29963;44.594;11.368;2023-04-09T09:29:22;6.35;;;5.07;;
44270;SDS011;29963;44.594;11.368;2023-04-09T09:31:52;8.05;;;4.55;;
44270;SDS011;29963;44.594;11.368;2023-04-09T09:34:19;5.93;;;5.38;;
44270;SDS011;29963;44.594;11.368;2023-04-09T09:36:46;6.32;;;5.78;;
44270;SDS011;29963;44.594;11.368;2023-04-09T09:39:13;5.90;;;5.40;;
44270;SDS011;29963;44.594;11.368;2023-04-09T09:41:41;7.63;;;4.88;;
44270;SDS011;29963;44.594;11.368;2023-04-09T09:44:09;4.85;;;3.65;;
44270;SDS011;29963;44.594;11.368;2023-04-09T09:46:37;3.70;;;3.40;;
44270;SDS011;29963;44.594;11.368;2023-04-09T09:49:04;2.63;;;2.00;;
44270;SDS011;29963;44.594;11.368;2023-04-09T09:51:31;4.25;;;2.55;;
44270;SDS011;29963;44.594;11.368;2023-04-09T09:53:58;2.83;;;2.00;;
44270;SDS011;29963;44.594;11.368;2023-04-09T09:56:24;2.50;;;2.05;;
44270;SDS011;29963;44.594;11.368;2023-04-09T09:59:06;2.40;;;2.20;;
44270;SDS011;29963;44.594;11.368;2023-04-09T10:01:32;2.40;;;1.58;;
44270;SDS011;29963;44.594;11.368;2023-04-09T10:03:59;1.98;;;1.80;;
44270;SDS011;29963;44.594;11.368;2023-04-09T10:06:26;1.60;;;1.50;;
44270;SDS011;29963;44.594;11.368;2023-04-09T10:08:55;1.65;;;1.40;;
44270;SDS011;29963;44.594;11.368;2023-04-09T10:11:22;3.05;;;1.45;;
44270;SDS011;29963;44.594;11.368;2023-04-09T10:13:57;1.52;;;1.40;;
44270;SDS011;29963;44.594;11.368;2023-04-09T10:16:24;1.70;;;1.55;;
44270;SDS011;29963;44.594;11.368;2023-04-09T10:18:51;1.70;;;1.60;;
44270;SDS011;29963;44.594;11.368;2023-04-09T10:23:48;1.63;;;1.52;;
44270;SDS011;29963;44.594;11.368;2023-04-09T10:26:16;2.03;;;1.50;;
44270;SDS011;29963;44.594;11.368;2023-04-09T10:28:43;2.30;;;2.03;;
44270;SDS011;29963;44.594;11.368;2023-04-09T10:31:08;2.10;;;1.90;;
44270;SDS011;29963;44.594;11.368;2023-04-09T10:33:35;1.70;;;1.60;;
44270;SDS011;29963;44.594;11.368;2023-04-09T10:36:02;2.13;;;1.50;;
44270;SDS011;29963;44.594;11.368;2023-04-09T10:38:38;2.65;;;1.67;;
44270;SDS011;29963;44.594;11.368;2023-04-09T10:43:38;1.60;;;1.50;;
44270;SDS011;29963;44.594;11.368;2023-04-09T10:46:06;2.67;;;1.70;;
44270;SDS011;29963;44.594;11.368;2023-04-09T10:48:48;2.13;;;1.95;;
44270;SDS011;29963;44.594;11.368;2023-04-09T10:51:17;2.45;;;2.05;;
44270;SDS011;29963;44.594;11.368;2023-04-09T10:53:43;1.92;;;1.83;;
44270;SDS011;29963;44.594;11.368;2023-04-09T10:56:13;2.28;;;2.08;;
44270;SDS011;29963;44.594;11.368;2023-04-09T10:58:40;2.53;;;1.77;;
44270;SDS011;29963;44.594;11.368;2023-04-09T11:01:06;3.03;;;2.25;;
44270;SDS011;29963;44.594;11.368;2023-04-09T11:03:31;3.17;;;2.30;;
44270;SDS011;29963;44.594;11.368;2023-04-09T11:06:07;3.97;;;2.40;;
44270;SDS011;29963;44.594;11.368;2023-04-09T11:08:35;2.60;;;2.40;;
44270;SDS011;29963;44.594;11.368;2023-04-09T11:11:02;1.92;;;1.80;;
44270;SDS011;29963;44.594;11.368;2023-04-09T11:13:29;2.63;;;2.20;;
44270;SDS011;29963;44.594;11.368;2023-04-09T11:15:56;2.35;;;2.00;;
44270;SDS011;29963;44.594;11.368;2023-04-09T11:18:26;2.58;;;2.10;;
44270;SDS011;29963;44.594;11.368;2023-04-09T11:21:00;2.08;;;1.85;;
44270;SDS011;29963;44.594;11.368;2023-04-09T11:23:28;2.38;;;2.17;;
44270;SDS011;29963;44.594;11.368;2023-04-09T11:25:55;2.35;;;1.75;;
44270;SDS011;29963;44.594;11.368;2023-04-09T11:28:21;1.98;;;1.42;;
44270;SDS011;29963;44.594;11.368;2023-04-09T11:30:49;1.75;;;1.65;;
44270;SDS011;29963;44.594;11.368;2023-04-09T11:33:15;2.00;;;1.77;;
44270;SDS011;29963;44.594;11.368;2023-04-09T11:35:41;1.50;;;1.30;;
44270;SDS011;29963;44.594;11.368;2023-04-09T11:38:08;1.55;;;1.45;;
44270;SDS011;29963;44.594;11.368;2023-04-09T11:40:35;1.75;;;1.60;;
44270;SDS011;29963;44.594;11.368;2023-04-09T11:43:01;2.10;;;1.90;;
44270;SDS011;29963;44.594;11.368;2023-04-09T11:45:27;2.65;;;2.38;;
44270;SDS011;29963;44.594;11.368;2023-04-09T11:47:54;1.92;;;1.73;;
44270;SDS011;29963;44.594;11.368;2023-04-09T11:50:20;3.22;;;2.92;;
44270;SDS011;29963;44.594;11.368;2023-04-09T11:52:48;2.50;;;2.30;;
44270;SDS011;29963;44.594;11.368;2023-04-09T11:55:27;2.50;;;2.30;;
44270;SDS011;29963;44.594;11.368;2023-04-09T11:57:56;2.65;;;2.45;;
44270;SDS011;29963;44.594;11.368;2023-04-09T12:00:24;3.13;;;2.75;;
44270;SDS011;29963;44.594;11.368;2023-04-09T12:02:57;2.75;;;2.55;;
44270;SDS011;29963;44.594;11.368;2023-04-09T12:05:28;2.45;;;2.22;;
44270;SDS011;29963;44.594;11.368;2023-04-09T12:07:56;2.80;;;2.60;;
44270;SDS011;29963;44.594;11.368;2023-04-09T12:10:29;2.45;;;2.25;;
44270;SDS011;29963;44.594;11.368;2023-04-09T12:13:02;2.88;;;2.25;;
44270;SDS011;29963;44.594;11.368;2023-04-09T12:15:35;3.58;;;2.38;;
44270;SDS011;29963;44.594;11.368;2023-04-09T12:18:02;2.40;;;2.20;;
44270;SDS011;29963;44.594;11.368;2023-04-09T12:20:41;2.55;;;1.88;;
44270;SDS011;29963;44.594;11.368;2023-04-09T12:23:08;5.05;;;1.85;;
44270;SDS011;29963;44.594;11.368;2023-04-09T12:25:35;2.50;;;2.30;;
44270;SDS011;29963;44.594;11.368;2023-04-09T12:28:03;2.60;;;2.40;;
44270;SDS011;29963;44.594;11.368;2023-04-09T12:30:29;3.28;;;2.28;;
44270;SDS011;29963;44.594;11.368;2023-04-09T12:32:56;2.60;;;2.40;;
44270;SDS011;29963;44.594;11.368;2023-04-09T12:35:22;2.72;;;2.40;;
44270;SDS011;29963;44.594;11.368;2023-04-09T12:37:48;6.00;;;2.63;;
44270;SDS011;29963;44.594;11.368;2023-04-09T12:40:14;1.88;;;1.75;;
44270;SDS011;29963;44.594;11.368;2023-04-09T12:42:40;6.00;;;2.30;;
44270;SDS011;29963;44.594;11.368;2023-04-09T12:45:11;2.25;;;1.83;;
44270;SDS011;29963;44.594;11.368;2023-04-09T12:47:38;2.25;;;1.88;;
44270;SDS011;29963;44.594;11.368;2023-04-09T12:50:04;2.65;;;2.30;;
44270;SDS011;29963;44.594;11.368;2023-04-09T12:52:31;2.30;;;1.60;;
44270;SDS011;29963;44.594;11.368;2023-04-09T12:54:56;3.35;;;2.38;;
44270;SDS011;29963;44.594;11.368;2023-04-09T12:57:22;1.90;;;1.73;;
44270;SDS011;29963;44.594;11.368;2023-04-09T12:59:48;2.35;;;1.88;;
44270;SDS011;29963;44.594;11.368;2023-04-09T13:02:13;2.10;;;1.90;;
44270;SDS011;29963;44.594;11.368;2023-04-09T13:04:39;1.85;;;1.75;;
44270;SDS011;29963;44.594;11.368;2023-04-09T13:07:05;2.20;;;1.90;;
44270;SDS011;29963;44.594;11.368;2023-04-09T13:09:31;1.90;;;1.65;;
44270;SDS011;29963;44.594;11.368;2023-04-09T13:11:56;1.77;;;1.60;;
44270;SDS011;29963;44.594;11.368;2023-04-09T13:14:22;2.75;;;2.08;;
44270;SDS011;29963;44.594;11.368;2023-04-09T13:16:48;1.60;;;1.50;;
44270;SDS011;29963;44.594;11.368;2023-04-09T13:19:14;2.90;;;2.08;;
44270;SDS011;29963;44.594;11.368;2023-04-09T13:21:39;2.53;;;1.88;;
44270;SDS011;29963;44.594;11.368;2023-04-09T13:24:06;3.15;;;2.63;;
44270;SDS011;29963;44.594;11.368;2023-04-09T13:26:31;1.85;;;1.70;;
44270;SDS011;29963;44.594;11.368;2023-04-09T13:28:57;5.82;;;2.15;;
44270;SDS011;29963;44.594;11.368;2023-04-09T13:31:23;1.90;;;1.70;;
44270;SDS011;29963;44.594;11.368;2023-04-09T13:33:49;1.83;;;1.33;;
44270;SDS011;29963;44.594;11.368;2023-04-09T13:36:15;2.65;;;1.70;;
44270;SDS011;29963;44.594;11.368;2023-04-09T13:38:40;2.42;;;1.73;;
44270;SDS011;29963;44.594;11.368;2023-04-09T13:41:06;1.80;;;1.60;;
44270;SDS011;29963;44.594;11.368;2023-04-09T13:43:31;2.05;;;1.85;;
44270;SDS011;29963;44.594;11.368;2023-04-09T13:45:57;3.72;;;1.63;;
44270;SDS011;29963;44.594;11.368;2023-04-09T13:48:24;2.10;;;1.75;;
44270;SDS011;29963;44.594;11.368;2023-04-09T13:50:49;4.35;;;1.70;;
44270;SDS011;29963;44.594;11.368;2023-04-09T13:53:15;2.65;;;1.75;;
44270;SDS011;29963;44.594;11.368;2023-04-09T13:55:41;1.55;;;1.45;;
44270;SDS011;29963;44.594;11.368;2023-04-09T13:58:10;1.73;;;1.50;;
44270;SDS011;29963;44.594;11.368;2023-04-09T14:00:36;2.70;;;1.38;;
44270;SDS011;29963;44.594;11.368;2023-04-09T14:03:02;2.08;;;1.20;;
44270;SDS011;29963;44.594;11.368;2023-04-09T14:05:28;1.30;;;1.10;;
44270;SDS011;29963;44.594;11.368;2023-04-09T14:07:56;1.70;;;1.48;;
44270;SDS011;29963;44.594;11.368;2023-04-09T14:10:22;1.27;;;1.17;;
44270;SDS011;29963;44.594;11.368;2023-04-09T14:12:47;1.05;;;1.05;;
44270;SDS011;29963;44.594;11.368;2023-04-09T14:15:13;1.60;;;1.05;;
44270;SDS011;29963;44.594;11.368;2023-04-09T14:17:39;1.55;;;1.42;;
44270;SDS011;29963;44.594;11.368;2023-04-09T14:20:05;1.38;;;1.20;;
44270;SDS011;29963;44.594;11.368;2023-04-09T14:22:31;0.95;;;0.90;;
44270;SDS011;29963;44.594;11.368;2023-04-09T14:24:56;1.17;;;1.08;;
44270;SDS011;29963;44.594;11.368;2023-04-09T14:27:23;1.35;;;1.25;;
44270;SDS011;29963;44.594;11.368;2023-04-09T14:29:49;4.07;;;1.30;;
44270;SDS011;29963;44.594;11.368;2023-04-09T14:32:15;1.60;;;1.25;;
44270;SDS011;29963;44.594;11.368;2023-04-09T14:34:41;2.42;;;1.38;;
44270;SDS011;29963;44.594;11.368;2023-04-09T14:37:06;1.60;;;1.10;;
44270;SDS011;29963;44.594;11.368;2023-04-09T14:39:32;1.67;;;1.20;;
44270;SDS011;29963;44.594;11.368;2023-04-09T14:41:58;0.98;;;0.93;;
44270;SDS011;29963;44.594;11.368;2023-04-09T14:44:23;2.15;;;1.25;;